Time;durP1;ratioP1;P1;durP2;ratioP2;P2;SDS_P1;SDS_P2;PMS_P1;PMS_P2;Temp;Humidity;BMP_temperature;BMP_pressure;BME280_temperature;BME280_humidity;BME280_pressure;Samples;Min_cycle;Max_cycle;Signal;HPM_P1;HPM_P2
2021/03/20 00:01:39;;;;;;;15.25;4.75;;;-0.20;99.90;;;;;;5074709;28;20616;-82
2021/03/20 00:04:06;;;;;;;7.45;4.32;;;0.00;99.90;;;;;;5074718;28;20209;-81
2021/03/20 00:06:35;;;;;;;5.90;3.30;;;0.10;99.90;;;;;;5071971;28;20237;-82
2021/03/20 00:09:05;;;;;;;7.35;4.05;;;0.10;99.90;;;;;;5074047;28;20257;-82
2021/03/20 00:11:32;;;;;;;4.57;3.30;;;0.30;99.90;;;;;;5074004;28;20748;-82
2021/03/20 00:13:58;;;;;;;6.50;4.03;;;0.20;99.90;;;;;;5073959;28;20333;-82
2021/03/20 00:16:26;;;;;;;7.53;4.20;;;0.20;99.90;;;;;;5073860;28;20240;-82
2021/03/20 00:18:53;;;;;;;6.43;4.25;;;0.10;99.90;;;;;;5073344;28;20376;-83
2021/03/20 00:21:19;;;;;;;5.47;4.15;;;0.10;99.90;;;;;;5072540;28;20699;-82
2021/03/20 00:23:46;;;;;;;74.30;25.20;;;0.10;99.90;;;;;;5073896;28;20723;-83
2021/03/20 00:26:12;;;;;;;6.85;4.25;;;0.00;99.90;;;;;;5072561;28;20237;-82
2021/03/20 00:28:39;;;;;;;6.40;4.30;;;-0.10;99.90;;;;;;5073728;28;20209;-83
2021/03/20 00:31:09;;;;;;;6.22;3.90;;;-0.10;99.90;;;;;;5073853;28;20233;-80
2021/03/20 00:33:37;;;;;;;4.97;4.30;;;-0.10;99.90;;;;;;5073041;28;20237;-82
2021/03/20 00:36:05;;;;;;;7.22;4.30;;;-0.10;99.90;;;;;;5072406;28;20300;-82
2021/03/20 00:38:31;;;;;;;5.30;2.92;;;-0.10;99.90;;;;;;5072788;28;20577;-81
2021/03/20 00:40:58;;;;;;;5.03;3.72;;;-0.20;99.90;;;;;;5072770;28;20289;-81
2021/03/20 00:43:25;;;;;;;7.35;3.50;;;-0.30;99.90;;;;;;5073193;28;20296;-80
2021/03/20 00:45:52;;;;;;;6.13;3.95;;;-0.30;99.90;;;;;;5073084;28;20202;-81
2021/03/20 00:48:22;;;;;;;8.02;4.53;;;-0.40;99.90;;;;;;5073464;28;20197;-80
2021/03/20 00:50:49;;;;;;;5.07;3.80;;;-0.40;99.90;;;;;;5071046;28;20245;-82
2021/03/20 00:53:16;;;;;;;4.70;4.20;;;-0.40;99.90;;;;;;5073000;28;20226;-82
2021/03/20 00:55:42;;;;;;;6.43;4.10;;;-0.50;99.90;;;;;;5072595;28;20292;-81
2021/03/20 00:58:22;;;;;;;5.95;2.92;;;-0.50;99.90;;;;;;5072664;28;20320;-81
2021/03/20 01:00:50;;;;;;;8.02;4.03;;;-0.50;99.90;;;;;;5072916;28;20729;-82
2021/03/20 01:03:17;;;;;;;7.25;4.15;;;-0.40;99.90;;;;;;5073311;28;20197;-81
2021/03/20 01:05:43;;;;;;;6.57;4.93;;;-0.40;99.90;;;;;;5071571;28;20209;-80
2021/03/20 01:08:11;;;;;;;6.65;4.82;;;-0.30;99.90;;;;;;5072550;28;20627;-81
2021/03/20 01:10:38;;;;;;;6.15;4.90;;;-0.30;99.90;;;;;;5073435;28;20724;-81
2021/03/20 01:13:05;;;;;;;9.25;4.97;;;-0.30;99.90;;;;;;5072476;28;20320;-81
2021/03/20 01:15:31;;;;;;;7.03;4.18;;;-0.40;99.90;;;;;;5073140;28;20297;-81
2021/03/20 01:17:58;;;;;;;5.82;4.53;;;-0.50;99.90;;;;;;5072645;28;20599;-81
2021/03/20 01:20:24;;;;;;;4.40;3.45;;;-0.50;99.90;;;;;;5071716;28;20233;-81
2021/03/20 01:22:50;;;;;;;9.13;4.93;;;-0.50;99.90;;;;;;5072148;28;20657;-80
2021/03/20 01:25:18;;;;;;;9.93;4.78;;;-0.40;99.90;;;;;;5072959;28;20675;-80
2021/03/20 01:27:47;;;;;;;8.50;5.85;;;-0.30;99.90;;;;;;5072202;28;20244;-81
2021/03/20 01:30:19;;;;;;;9.63;5.07;;;-0.30;99.90;;;;;;5072835;28;20319;-81
2021/03/20 01:32:46;;;;;;;7.93;5.65;;;-0.30;99.90;;;;;;5072837;28;20321;-81
2021/03/20 01:35:12;;;;;;;7.45;4.65;;;-0.30;99.90;;;;;;5071326;28;20232;-81
2021/03/20 01:37:39;;;;;;;5.53;4.63;;;-0.20;99.90;;;;;;5072518;28;20252;-81
2021/03/20 01:40:08;;;;;;;9.27;6.20;;;-0.20;99.90;;;;;;5073003;28;20205;-82
2021/03/20 01:42:40;;;;;;;11.15;5.95;;;-0.20;99.90;;;;;;5072986;28;20292;-81
2021/03/20 01:45:13;;;;;;;8.10;5.88;;;-0.20;99.90;;;;;;5071989;28;20233;-81
2021/03/20 01:47:47;;;;;;;7.82;5.40;;;-0.10;99.90;;;;;;5072596;28;20205;-82
2021/03/20 01:50:20;;;;;;;8.93;4.90;;;-0.10;99.90;;;;;;5070866;28;20208;-81
2021/03/20 01:52:52;;;;;;;7.35;5.07;;;0.00;99.90;;;;;;5074739;28;20662;-81
2021/03/20 01:55:19;;;;;;;8.15;4.70;;;0.30;99.90;;;;;;5076735;28;20239;-81
2021/03/20 01:57:50;;;;;;;12.98;6.38;;;0.00;99.90;;;;;;5076327;28;20318;-82
2021/03/20 02:00:21;;;;;;;9.65;4.40;;;0.00;99.90;;;;;;5076748;28;20288;-81
2021/03/20 02:02:48;;;;;;;7.80;5.07;;;0.20;99.90;;;;;;5076316;28;20661;-81
2021/03/20 02:05:18;;;;;;;9.43;5.25;;;0.10;99.90;;;;;;5075113;28;20229;-81
2021/03/20 02:07:45;;;;;;;7.45;4.90;;;0.10;99.90;;;;;;5075589;28;20221;-81
2021/03/20 02:10:12;;;;;;;8.02;4.95;;;0.20;99.90;;;;;;5076607;28;20296;-81
2021/03/20 02:12:41;;;;;;;10.55;5.07;;;0.30;99.90;;;;;;5076381;28;22176;-81
2021/03/20 02:15:15;;;;;;;7.75;5.13;;;0.30;99.90;;;;;;5081634;28;20252;-81
2021/03/20 02:17:49;;;;;;;6.00;4.13;;;0.30;99.90;;;;;;5075534;28;20267;-80
2021/03/20 02:20:40;;;;;;;10.25;4.25;;;0.30;99.90;;;;;;5075092;28;20634;-81
2021/03/20 02:23:48;;;;;;;8.60;5.05;;;0.30;99.90;;;;;;5076106;28;20347;-81
2021/03/20 02:26:56;;;;;;;9.93;6.20;;;0.40;99.90;;;;;;5061499;28;20237;-81
2021/03/20 02:29:58;;;;;;;7.28;4.25;;;0.50;99.90;;;;;;5023012;28;20632;-81
2021/03/20 02:32:49;;;;;;;6.10;4.43;;;0.50;99.90;;;;;;5055983;28;20248;-81
2021/03/20 02:35:24;;;;;;;7.13;4.82;;;0.50;99.90;;;;;;5054833;28;20206;-80
2021/03/20 02:37:59;;;;;;;10.18;5.30;;;0.60;99.90;;;;;;5055853;28;20632;-81
2021/03/20 02:40:31;;;;;;;8.85;5.72;;;0.60;99.90;;;;;;5055904;28;20544;-81
2021/03/20 02:43:02;;;;;;;6.75;4.40;;;0.80;99.90;;;;;;5055346;28;20610;-81
2021/03/20 02:45:34;;;;;;;7.38;5.47;;;0.80;99.90;;;;;;5071446;28;20201;-82
2021/03/20 02:48:09;;;;;;;7.25;6.10;;;0.80;99.90;;;;;;5075550;28;20205;-81
2021/03/20 02:50:42;;;;;;;8.40;5.72;;;0.70;99.90;;;;;;5073401;28;20229;-81
2021/03/20 02:53:16;;;;;;;6.72;5.10;;;0.70;99.90;;;;;;5075631;28;20688;-81
2021/03/20 02:55:47;;;;;;;8.77;4.85;;;0.80;99.90;;;;;;5075456;28;20233;-82
2021/03/20 02:58:17;;;;;;;10.38;4.70;;;0.80;99.90;;;;;;5075005;28;20838;-81
2021/03/20 03:00:49;;;;;;;5.03;3.88;;;0.70;99.90;;;;;;5075458;28;20292;-82
2021/03/20 03:03:18;;;;;;;6.10;4.97;;;0.80;99.90;;;;;;5075404;28;20309;-82
2021/03/20 03:05:50;;;;;;;7.32;4.10;;;0.80;99.90;;;;;;5075075;28;20362;-81
2021/03/20 03:08:20;;;;;;;9.30;5.10;;;0.80;99.90;;;;;;5075508;28;20198;-81
2021/03/20 03:10:50;;;;;;;7.50;5.78;;;0.80;99.90;;;;;;5073958;28;20225;-80
2021/03/20 03:13:22;;;;;;;7.28;5.40;;;0.80;99.90;;;;;;5082816;28;20272;-81
2021/03/20 03:15:54;;;;;;;9.05;5.78;;;0.70;99.90;;;;;;5085345;28;20198;-81
2021/03/20 03:18:26;;;;;;;5.63;4.60;;;0.70;99.90;;;;;;5075905;28;20201;-80
2021/03/20 03:20:56;;;;;;;8.20;5.43;;;0.80;99.90;;;;;;5082564;28;20209;-80
2021/03/20 03:23:25;;;;;;;10.63;6.25;;;0.70;99.90;;;;;;5069124;28;20662;-81
2021/03/20 03:25:57;;;;;;;11.25;5.80;;;0.80;99.90;;;;;;5069519;28;20234;-81
2021/03/20 03:28:27;;;;;;;5.25;4.63;;;0.80;99.90;;;;;;5057435;28;20211;-81
2021/03/20 03:30:55;;;;;;;6.80;4.70;;;0.80;99.90;;;;;;5075030;28;20567;-81
2021/03/20 03:33:27;;;;;;;8.02;6.50;;;0.70;99.90;;;;;;5075039;28;20688;-81
2021/03/20 03:35:57;;;;;;;8.30;5.47;;;0.70;99.90;;;;;;5073837;28;20307;-82
2021/03/20 03:38:35;;;;;;;5.03;4.32;;;0.80;99.90;;;;;;5074588;28;20293;-82
2021/03/20 03:41:09;;;;;;;8.02;5.78;;;0.80;99.90;;;;;;5074814;28;20296;-81
2021/03/20 03:43:36;;;;;;;7.03;4.95;;;0.80;99.90;;;;;;5074218;28;20312;-81
2021/03/20 03:46:03;;;;;;;6.30;4.88;;;0.80;99.90;;;;;;5074745;28;20286;-81
2021/03/20 03:48:30;;;;;;;6.80;5.55;;;0.90;99.90;;;;;;5074343;28;20710;-80
2021/03/20 03:51:08;;;;;;;6.90;6.07;;;0.90;99.90;;;;;;5072403;28;20332;-82
2021/03/20 03:53:35;;;;;;;8.75;5.72;;;0.90;99.90;;;;;;5074335;28;20700;-81
2021/03/20 03:56:10;;;;;;;5.47;4.68;;;1.00;99.90;;;;;;5074352;28;20672;-81
2021/03/20 03:58:52;;;;;;;7.22;5.68;;;0.90;99.90;;;;;;5074121;28;20328;-82
2021/03/20 04:01:28;;;;;;;7.15;6.38;;;1.00;99.90;;;;;;5074323;28;20291;-83
2021/03/20 04:04:02;;;;;;;6.88;5.13;;;0.90;99.90;;;;;;5074069;28;20280;-80
2021/03/20 04:06:49;;;;;;;9.95;5.13;;;0.80;99.90;;;;;;5072878;28;20209;-85
2021/03/20 04:09:29;;;;;;;7.00;5.10;;;0.70;99.90;;;;;;5074294;28;20213;-83
2021/03/20 04:12:01;;;;;;;10.45;6.75;;;0.60;99.90;;;;;;5073223;28;20612;-81
2021/03/20 04:14:37;;;;;;;6.90;5.35;;;0.50;99.90;;;;;;5072817;28;20658;-82
2021/03/20 04:17:10;;;;;;;8.30;5.72;;;0.40;99.90;;;;;;5073703;28;20237;-82
2021/03/20 04:19:49;;;;;;;9.55;5.50;;;0.30;99.90;;;;;;5073946;28;20236;-83
2021/03/20 04:22:24;;;;;;;12.13;6.88;;;0.20;99.90;;;;;;5073337;28;20364;-80
2021/03/20 04:24:58;;;;;;;6.90;6.20;;;0.10;99.90;;;;;;5073627;28;20630;-82
2021/03/20 04:27:32;;;;;;;7.05;5.68;;;0.00;99.90;;;;;;5073495;28;20292;-82
2021/03/20 04:30:04;;;;;;;7.35;5.78;;;-0.10;99.90;;;;;;5072660;28;20568;-82
2021/03/20 04:32:37;;;;;;;9.57;7.22;;;-0.20;99.90;;;;;;5073664;28;20229;-82
2021/03/20 04:35:09;;;;;;;9.18;7.25;;;-0.10;99.90;;;;;;5072045;28;20233;-82
2021/03/20 04:37:38;;;;;;;9.30;6.03;;;-0.20;99.90;;;;;;5072838;28;20613;-82
2021/03/20 04:40:13;;;;;;;14.07;7.55;;;-0.20;99.90;;;;;;5073639;28;20202;-80
2021/03/20 04:42:39;;;;;;;11.50;6.00;;;-0.20;99.90;;;;;;5073136;28;20724;-81
2021/03/20 04:45:10;;;;;;;10.77;6.45;;;-0.20;99.90;;;;;;5073514;28;20244;-81
2021/03/20 04:47:38;;;;;;;12.65;7.63;;;-0.20;99.90;;;;;;5073477;28;20289;-81
2021/03/20 04:50:08;;;;;;;13.13;7.43;;;-0.30;99.90;;;;;;5070817;28;20742;-81
2021/03/20 04:52:38;;;;;;;12.00;7.18;;;-0.40;99.90;;;;;;5073279;28;20288;-80
2021/03/20 04:55:09;;;;;;;7.78;6.00;;;-0.40;99.90;;;;;;5073245;28;20684;-80
2021/03/20 04:57:40;;;;;;;7.50;6.05;;;-0.30;99.90;;;;;;5073176;28;20260;-80
2021/03/20 05:00:13;;;;;;;8.77;6.30;;;-0.40;99.90;;;;;;5073095;28;20240;-80
2021/03/20 05:02:44;;;;;;;9.45;6.15;;;-0.40;99.90;;;;;;5073217;28;20292;-80
2021/03/20 05:05:22;;;;;;;12.77;7.65;;;-0.50;99.90;;;;;;5071772;28;20248;-80
2021/03/20 05:07:50;;;;;;;14.52;7.18;;;-0.60;99.90;;;;;;5072811;28;20241;-80
2021/03/20 05:10:24;;;;;;;7.75;5.57;;;-0.60;99.90;;;;;;5073167;28;20205;-80
2021/03/20 05:12:51;;;;;;;12.27;7.25;;;-0.60;99.90;;;;;;5074910;28;20284;-80
2021/03/20 05:15:28;;;;;;;11.30;6.53;;;-0.50;99.90;;;;;;5072982;28;20237;-79
2021/03/20 05:17:55;;;;;;;8.38;5.10;;;-0.50;99.90;;;;;;5072787;28;20224;-79
2021/03/20 05:20:23;;;;;;;9.73;5.43;;;-0.50;99.90;;;;;;5071579;28;20259;-79
2021/03/20 05:22:50;;;;;;;15.48;8.25;;;-0.40;99.90;;;;;;5072801;28;20213;-80
2021/03/20 05:25:21;;;;;;;12.23;7.28;;;-0.40;99.90;;;;;;5071844;28;20292;-80
2021/03/20 05:27:49;;;;;;;10.32;8.07;;;-0.30;99.90;;;;;;5073363;28;20197;-80
2021/03/20 05:30:17;;;;;;;9.57;6.15;;;-0.30;99.90;;;;;;5072143;28;20668;-81
2021/03/20 05:32:43;;;;;;;14.75;6.20;;;-0.20;99.90;;;;;;5072674;28;20236;-80
2021/03/20 05:35:18;;;;;;;63.92;31.75;;;-0.40;99.90;;;;;;5071302;28;20237;-81
2021/03/20 05:37:45;;;;;;;77.07;33.42;;;-0.60;99.90;;;;;;5072790;28;20237;-81
2021/03/20 05:40:23;;;;;;;30.73;16.05;;;-0.80;99.90;;;;;;5072613;28;20289;-81
2021/03/20 05:43:20;;;;;;;31.38;15.35;;;-0.80;99.90;;;;;;5072664;28;20237;-81
2021/03/20 05:45:59;;;;;;;24.90;10.82;;;-0.70;99.90;;;;;;5072433;28;20202;-81
2021/03/20 05:48:29;;;;;;;11.73;6.30;;;-0.70;99.90;;;;;;5072465;28;20296;-82
2021/03/20 05:51:09;;;;;;;8.95;6.40;;;-0.60;99.90;;;;;;5071262;28;20330;-81
2021/03/20 05:54:15;;;;;;;14.63;5.88;;;-0.60;99.90;;;;;;5071459;28;20236;-82
2021/03/20 05:56:53;;;;;;;15.73;6.95;;;-0.50;99.90;;;;;;5071087;28;20686;-82
2021/03/20 05:59:30;;;;;;;13.68;7.55;;;-0.30;99.90;;;;;;5072436;28;20717;-83
2021/03/20 06:02:06;;;;;;;10.65;7.38;;;-0.30;99.90;;;;;;5072459;28;20652;-83
2021/03/20 06:04:36;;;;;;;8.95;7.28;;;-0.10;99.90;;;;;;5072441;28;20296;-83
2021/03/20 06:07:25;;;;;;;7.97;5.85;;;0.00;99.90;;;;;;5071463;28;20285;-82
2021/03/20 06:10:03;;;;;;;9.77;5.43;;;-0.10;99.90;;;;;;5072365;28;20288;-82
2021/03/20 06:12:45;;;;;;;8.40;4.80;;;0.20;99.90;;;;;;5072048;28;20278;-83
2021/03/20 06:15:14;;;;;;;6.53;5.40;;;0.40;99.90;;;;;;5070977;28;20293;-83
2021/03/20 06:17:55;;;;;;;8.32;5.07;;;0.40;99.90;;;;;;5072480;28;20226;-83
2021/03/20 06:20:33;;;;;;;6.47;5.05;;;0.60;99.90;;;;;;5070754;28;20320;-82
2021/03/20 06:23:26;;;;;;;4.53;3.45;;;0.80;99.90;;;;;;5072084;28;20237;-82
2021/03/20 06:25:58;;;;;;;8.35;4.95;;;0.80;99.90;;;;;;5072600;28;20680;-82
2021/03/20 06:28:29;;;;;;;3.97;3.58;;;0.80;99.90;;;;;;5071815;28;20202;-83
2021/03/20 06:31:00;;;;;;;7.05;4.13;;;0.90;99.90;;;;;;5072249;28;20285;-83
2021/03/20 06:33:30;;;;;;;4.78;4.32;;;1.00;99.90;;;;;;5072519;28;20225;-84
2021/03/20 06:36:04;;;;;;;7.70;4.15;;;1.00;99.90;;;;;;5070983;28;20263;-83
2021/03/20 06:38:36;;;;;;;5.30;3.30;;;1.10;99.90;;;;;;5055445;28;20226;-87
2021/03/20 06:41:15;;;;;;;5.72;2.80;;;1.10;99.90;;;;;;5056511;28;20206;-85
2021/03/20 06:43:47;;;;;;;3.22;2.92;;;1.10;99.90;;;;;;5056031;28;20205;-83
2021/03/20 06:46:18;;;;;;;4.40;2.08;;;1.10;99.90;;;;;;5067224;28;20209;-88
2021/03/20 06:48:45;;;;;;;4.15;2.83;;;1.20;99.90;;;;;;5076984;28;20263;-89
2021/03/20 06:51:12;;;;;;;6.50;4.00;;;1.20;99.90;;;;;;5074599;28;20201;-86
2021/03/20 06:53:44;;;;;;;3.75;2.45;;;1.20;99.90;;;;;;5076026;28;20705;-86
2021/03/20 06:56:13;;;;;;;3.75;2.58;;;1.30;99.90;;;;;;5077704;28;20244;-87
2021/03/20 06:58:41;;;;;;;6.93;3.28;;;1.40;99.90;;;;;;5084038;28;20237;-88
2021/03/20 07:01:26;;;;;;;3.72;2.97;;;1.50;99.90;;;;;;5086995;28;20209;-84
2021/03/20 07:04:30;;;;;;;3.15;2.38;;;1.50;99.90;;;;;;5090025;28;20225;-86
2021/03/20 07:07:15;;;;;;;5.07;3.53;;;1.40;99.90;;;;;;5088303;28;20240;-89
2021/03/20 07:09:43;;;;;;;5.18;3.58;;;1.50;99.90;;;;;;5089994;28;20202;-84
2021/03/20 07:12:13;;;;;;;3.60;3.30;;;1.50;99.90;;;;;;5084442;28;20220;-85
2021/03/20 07:14:42;;;;;;;3.72;2.95;;;1.70;99.90;;;;;;5084858;28;20244;-87
2021/03/20 07:17:25;;;;;;;7.88;5.03;;;2.00;99.90;;;;;;5074937;28;20612;-88
2021/03/20 07:19:54;;;;;;;8.75;5.38;;;2.00;99.90;;;;;;5095374;28;20232;-84
2021/03/20 07:22:32;;;;;;;5.95;4.30;;;1.90;99.90;;;;;;5092599;28;20683;-85
2021/03/20 07:25:00;;;;;;;15.43;9.35;;;1.90;99.60;;;;;;5091361;28;20209;-86
2021/03/20 07:27:34;;;;;;;5.70;4.25;;;2.20;99.20;;;;;;5084525;28;20217;-83
2021/03/20 07:30:04;;;;;;;4.03;3.38;;;2.20;98.70;;;;;;5089325;28;20192;-88
2021/03/20 07:32:37;;;;;;;3.85;2.90;;;2.20;98.50;;;;;;5096045;28;20228;-83
2021/03/20 07:35:25;;;;;;;4.22;2.60;;;2.20;98.40;;;;;;5098442;28;20216;-87
2021/03/20 07:37:53;;;;;;;3.25;2.80;;;2.20;98.90;;;;;;5097596;28;20208;-85
2021/03/20 07:40:32;;;;;;;4.43;2.97;;;2.20;99.70;;;;;;5093623;28;20205;-87
2021/03/20 07:43:15;;;;;;;4.90;3.55;;;2.40;99.70;;;;;;5082207;28;20197;-88
2021/03/20 07:45:42;;;;;;;4.93;3.05;;;2.50;98.70;;;;;;5080649;28;20201;-88
2021/03/20 07:48:19;;;;;;;2.83;2.38;;;2.60;97.30;;;;;;5077713;28;20205;-84
2021/03/20 07:50:47;;;;;;;2.65;2.28;;;2.70;96.60;;;;;;5076459;28;20572;-88
2021/03/20 07:53:16;;;;;;;2.35;2.15;;;2.70;96.60;;;;;;5077499;28;20248;-85
2021/03/20 07:56:01;;;;;;;2.53;2.30;;;2.80;95.70;;;;;;5076681;28;20202;-82
2021/03/20 07:58:38;;;;;;;2.90;2.25;;;2.60;95.80;;;;;;5076218;28;20702;-85
2021/03/20 08:01:08;;;;;;;4.65;2.95;;;2.60;96.70;;;;;;5077358;28;20292;-83
2021/03/20 08:03:47;;;;;;;3.28;2.72;;;2.40;96.20;;;;;;5078801;28;20206;-90
2021/03/20 08:06:15;;;;;;;3.10;2.80;;;2.20;96.60;;;;;;5077455;28;20229;-85
2021/03/20 08:08:42;;;;;;;3.10;2.28;;;2.20;97.10;;;;;;5076908;28;20664;-87
2021/03/20 08:11:29;;;;;;;2.83;2.58;;;2.00;97.50;;;;;;5082331;28;20221;-87
2021/03/20 08:14:02;;;;;;;2.80;2.50;;;2.00;96.10;;;;;;5077517;28;20320;-84
2021/03/20 08:16:28;;;;;;;4.05;3.22;;;1.90;96.00;;;;;;5076564;28;20205;-85
2021/03/20 08:18:57;;;;;;;9.35;3.03;;;1.90;97.00;;;;;;5074947;28;20327;-85
2021/03/20 08:22:01;;;;;;;3.83;3.13;;;2.10;96.90;;;;;;5074915;28;20205;-84
2021/03/20 08:24:47;;;;;;;2.40;2.20;;;2.50;94.70;;;;;;5075977;28;20244;-87
2021/03/20 08:27:24;;;;;;;2.65;2.40;;;2.60;94.70;;;;;;5075968;28;20216;-82
2021/03/20 08:30:29;;;;;;;3.65;2.67;;;2.80;94.00;;;;;;5076617;28;20217;-88
2021/03/20 08:33:19;;;;;;;4.22;3.03;;;2.90;93.60;;;;;;5068489;28;20759;-82
2021/03/20 08:35:57;;;;;;;6.57;2.35;;;3.00;93.60;;;;;;5052368;28;20297;-83
2021/03/20 08:38:50;;;;;;;3.10;2.20;;;3.40;92.20;;;;;;5053763;28;20723;-81
2021/03/20 08:41:29;;;;;;;3.28;2.83;;;3.70;91.80;;;;;;5054407;28;20293;-82
2021/03/20 08:44:19;;;;;;;3.13;2.67;;;3.50;91.70;;;;;;5053825;28;20202;-89
2021/03/20 08:47:35;;;;;;;4.90;2.67;;;3.50;90.70;;;;;;5053353;28;20621;-81
2021/03/20 08:50:16;;;;;;;2.33;2.15;;;3.30;90.10;;;;;;4989184;28;20304;-79
2021/03/20 08:52:54;;;;;;;4.53;2.50;;;3.10;90.10;;;;;;4992138;28;20290;-82
2021/03/20 08:55:51;;;;;;;2.60;2.10;;;3.00;87.90;;;;;;5050416;28;20331;-80
2021/03/20 08:58:39;;;;;;;3.40;1.90;;;3.00;91.00;;;;;;5072841;28;20264;-81
2021/03/20 09:01:11;;;;;;;1.60;1.50;;;3.30;87.20;;;;;;5073188;28;20288;-84
2021/03/20 09:03:43;;;;;;;2.65;2.00;;;3.60;87.70;;;;;;5072840;28;20213;-80
2021/03/20 09:06:23;;;;;;;1.90;1.80;;;3.80;85.20;;;;;;5070720;28;20296;-84
2021/03/20 09:08:52;;;;;;;1.50;1.40;;;3.70;86.10;;;;;;5073223;28;20280;-84
2021/03/20 09:11:32;;;;;;;2.20;1.25;;;3.50;83.60;;;;;;5073527;28;20247;-83
2021/03/20 09:14:03;;;;;;;2.42;2.03;;;3.30;79.70;;;;;;5073401;28;20241;-81
2021/03/20 09:16:37;;;;;;;6.32;1.90;;;3.10;82.50;;;;;;5073255;28;20288;-89
2021/03/20 09:19:06;;;;;;;1.63;1.52;;;3.10;80.00;;;;;;5072654;28;20205;-82
2021/03/20 09:21:38;;;;;;;7.00;2.25;;;3.10;80.50;;;;;;5071873;28;20284;-80
2021/03/20 09:24:07;;;;;;;1.58;1.48;;;3.10;80.70;;;;;;5072953;28;20205;-83
2021/03/20 09:26:42;;;;;;;1.42;1.20;;;3.50;83.90;;;;;;5072746;28;20212;-84
2021/03/20 09:29:14;;;;;;;2.08;1.08;;;3.70;73.80;;;;;;5072840;28;20244;-84
2021/03/20 09:32:12;;;;;;;1.83;1.50;;;4.00;73.60;;;;;;5072936;28;20205;-83
2021/03/20 09:34:47;;;;;;;1.95;1.75;;;4.30;74.80;;;;;;5072034;28;20269;-82
2021/03/20 09:37:55;;;;;;;2.95;2.00;;;4.40;74.30;;;;;;5072388;28;20201;-86
2021/03/20 09:40:42;;;;;;;1.98;1.80;;;4.50;77.20;;;;;;5073869;28;20201;-88
2021/03/20 09:43:45;;;;;;;4.32;1.77;;;4.40;76.30;;;;;;5070573;28;20586;-86
2021/03/20 09:46:34;;;;;;;1.75;1.63;;;4.30;77.00;;;;;;5052462;28;20556;-80
2021/03/20 09:49:02;;;;;;;3.55;1.80;;;4.40;76.20;;;;;;5072652;28;20661;-84
2021/03/20 09:51:58;;;;;;;2.95;1.88;;;4.30;79.20;;;;;;5070976;28;20880;-86
2021/03/20 09:54:42;;;;;;;3.00;1.90;;;4.60;83.90;;;;;;5069458;28;20457;-83
2021/03/20 09:57:49;;;;;;;1.90;1.80;;;4.50;81.10;;;;;;5072353;28;20824;-88
2021/03/20 10:00:59;;;;;;;1.90;1.33;;;4.60;77.20;;;;;;5072672;28;20564;-88
2021/03/20 10:03:44;;;;;;;2.60;1.30;;;4.80;78.10;;;;;;5055239;28;20209;-85
2021/03/20 10:06:32;;;;;;;4.68;1.60;;;4.90;78.70;;;;;;5071681;28;20292;-87
2021/03/20 10:09:20;;;;;;;2.35;1.63;;;5.10;71.60;;;;;;5072549;28;20262;-87
2021/03/20 10:12:09;;;;;;;1.83;1.58;;;4.90;70.80;;;;;;5073267;28;20202;-87
2021/03/20 10:14:53;;;;;;;1.70;1.35;;;4.60;71.10;;;;;;5076501;28;20229;-86
2021/03/20 10:17:22;;;;;;;2.00;1.20;;;4.40;71.20;;;;;;5075200;28;20499;-87
2021/03/20 10:19:52;;;;;;;1.95;1.30;;;4.40;71.50;;;;;;5076434;28;20821;-85
2021/03/20 10:22:25;;;;;;;2.40;1.35;;;4.30;71.80;;;;;;5074384;28;20217;-86
2021/03/20 10:24:52;;;;;;;1.80;1.30;;;4.00;74.30;;;;;;5075479;28;20677;-89
2021/03/20 10:27:25;;;;;;;2.55;1.40;;;3.80;72.40;;;;;;5076553;28;20231;-86
2021/03/20 10:29:53;;;;;;;1.10;1.00;;;3.90;69.00;;;;;;5075216;28;20288;-84
2021/03/20 10:32:22;;;;;;;1.45;1.35;;;3.50;73.00;;;;;;5076610;28;20306;-83
2021/03/20 10:34:52;;;;;;;2.20;2.10;;;3.40;71.50;;;;;;5076239;28;20241;-83
2021/03/20 10:37:21;;;;;;;1.90;1.23;;;3.60;71.60;;;;;;5073625;28;20673;-84
2021/03/20 10:40:03;;;;;;;4.78;1.55;;;3.50;71.90;;;;;;5076884;28;20304;-83
2021/03/20 10:42:33;;;;;;;1.85;1.10;;;3.70;72.60;;;;;;5078640;28;20201;-85
2021/03/20 10:45:05;;;;;;;1.80;1.38;;;3.70;74.10;;;;;;5077943;28;20241;-85
2021/03/20 10:47:34;;;;;;;1.63;1.20;;;3.80;74.10;;;;;;5075529;28;20248;-85
2021/03/20 10:50:04;;;;;;;1.83;1.70;;;3.90;71.60;;;;;;5074874;28;20665;-84
2021/03/20 10:52:34;;;;;;;1.98;1.77;;;3.80;71.20;;;;;;5074843;28;20202;-84
2021/03/20 10:55:10;;;;;;;2.40;1.40;;;3.80;73.10;;;;;;5075700;28;20759;-83
2021/03/20 10:57:37;;;;;;;3.55;1.63;;;3.90;73.10;;;;;;5075304;28;20233;-91
2021/03/20 11:00:19;;;;;;;2.47;2.10;;;4.00;72.80;;;;;;5075627;28;20291;-88
2021/03/20 11:02:45;;;;;;;4.03;1.90;;;3.80;72.30;;;;;;5076005;28;20655;-83
2021/03/20 11:05:32;;;;;;;5.43;2.63;;;3.80;73.60;;;;;;5074150;28;20292;-86
2021/03/20 11:08:01;;;;;;;2.78;2.22;;;3.90;75.60;;;;;;5074588;28;20250;-89
2021/03/20 11:10:31;;;;;;;1.42;1.33;;;4.00;77.00;;;;;;5075931;28;20236;-84
2021/03/20 11:13:04;;;;;;;2.65;2.22;;;4.20;75.30;;;;;;5075662;28;20209;-88
2021/03/20 11:15:34;;;;;;;2.55;2.35;;;4.10;73.10;;;;;;5076347;28;20229;-84
2021/03/20 11:18:06;;;;;;;1.52;1.35;;;4.20;75.70;;;;;;5075651;28;20227;-85
2021/03/20 11:20:35;;;;;;;2.33;1.98;;;4.10;74.50;;;;;;5075311;28;20292;-85
2021/03/20 11:23:01;;;;;;;2.10;1.60;;;4.20;73.20;;;;;;5075462;28;20647;-84
2021/03/20 11:25:33;;;;;;;1.70;1.60;;;3.80;73.30;;;;;;5073528;28;20292;-83
2021/03/20 11:28:03;;;;;;;2.17;1.63;;;4.10;73.60;;;;;;5075598;28;20205;-86
2021/03/20 11:30:36;;;;;;;2.15;1.75;;;4.20;73.80;;;;;;5076855;28;20239;-87
2021/03/20 11:33:04;;;;;;;2.47;1.35;;;4.20;72.80;;;;;;5074330;28;20375;-87
2021/03/20 11:35:34;;;;;;;2.45;1.83;;;4.30;72.00;;;;;;5074765;28;21131;-84
2021/03/20 11:38:01;;;;;;;1.90;1.63;;;4.20;69.80;;;;;;5077472;28;20657;-87
2021/03/20 11:40:31;;;;;;;1.83;1.30;;;4.10;70.90;;;;;;5089159;28;20263;-84
2021/03/20 11:43:00;;;;;;;1.98;1.70;;;4.20;70.20;;;;;;5087337;28;20239;-85
2021/03/20 11:45:31;;;;;;;3.53;1.70;;;4.20;70.00;;;;;;5080073;28;20206;-85
2021/03/20 11:48:01;;;;;;;6.43;1.80;;;4.30;70.70;;;;;;5086445;28;20213;-83
2021/03/20 11:50:30;;;;;;;1.73;1.48;;;4.30;67.40;;;;;;5086429;28;20638;-81
2021/03/20 11:53:01;;;;;;;4.43;2.35;;;4.50;68.50;;;;;;5089178;28;20206;-83
2021/03/20 11:55:36;;;;;;;3.75;1.45;;;4.60;69.40;;;;;;5077513;28;20652;-84
2021/03/20 11:58:07;;;;;;;1.63;1.52;;;4.70;70.40;;;;;;5076786;28;20324;-84
2021/03/20 12:00:38;;;;;;;1.30;1.20;;;4.80;71.00;;;;;;5077120;28;20205;-81
2021/03/20 12:03:23;;;;;;;3.47;2.28;;;4.90;73.90;;;;;;5076406;28;20197;-87
2021/03/20 12:05:52;;;;;;;2.45;1.98;;;4.90;71.00;;;;;;5075021;28;20252;-85
2021/03/20 12:08:25;;;;;;;2.40;1.45;;;4.90;72.40;;;;;;5074586;28;21151;-83
2021/03/20 12:10:57;;;;;;;3.90;1.42;;;4.90;70.30;;;;;;5075936;28;20232;-86
2021/03/20 12:13:42;;;;;;;2.83;2.58;;;4.80;70.20;;;;;;5076461;28;20236;-84
2021/03/20 12:16:33;;;;;;;2.70;2.08;;;4.50;71.50;;;;;;5072960;28;20208;-81
2021/03/20 12:19:16;;;;;;;1.75;1.63;;;4.70;73.00;;;;;;5077043;28;20676;-80
2021/03/20 12:22:04;;;;;;;6.45;2.05;;;4.80;70.60;;;;;;5074714;28;20536;-88
2021/03/20 12:24:34;;;;;;;1.77;1.55;;;4.70;68.90;;;;;;5076981;28;20724;-88
2021/03/20 12:27:28;;;;;;;3.20;1.90;;;4.80;70.50;;;;;;5076248;28;20724;-88
2021/03/20 12:30:02;;;;;;;3.08;1.58;;;5.10;70.50;;;;;;5076006;28;20288;-88
2021/03/20 12:32:34;;;;;;;4.15;2.13;;;5.20;71.00;;;;;;5076879;28;20263;-83
2021/03/20 12:35:30;;;;;;;2.03;1.75;;;5.20;70.40;;;;;;5075156;28;20234;-84
2021/03/20 12:38:24;;;;;;;2.00;1.80;;;5.20;70.30;;;;;;5075940;28;20210;-83
2021/03/20 12:40:55;;;;;;;2.75;1.95;;;4.90;69.90;;;;;;5075638;28;20248;-87
2021/03/20 12:43:31;;;;;;;1.83;1.50;;;5.10;69.80;;;;;;5077243;28;20594;-86
2021/03/20 12:45:59;;;;;;;2.13;1.90;;;5.30;71.20;;;;;;5076630;28;20625;-84
2021/03/20 12:48:26;;;;;;;2.05;1.80;;;5.40;71.80;;;;;;5077691;28;20202;-86
2021/03/20 12:51:00;;;;;;;2.60;1.90;;;5.30;69.10;;;;;;5076418;28;20229;-86
2021/03/20 12:53:26;;;;;;;2.58;2.38;;;5.20;69.80;;;;;;5083680;28;20205;-89
2021/03/20 12:55:53;;;;;;;3.38;2.20;;;5.40;70.60;;;;;;5092537;28;20557;-86
2021/03/20 12:58:19;;;;;;;2.78;2.22;;;5.60;69.20;;;;;;5070154;28;20229;-87
2021/03/20 13:00:46;;;;;;;1.85;1.60;;;5.50;69.50;;;;;;5077295;28;20708;-84
2021/03/20 13:03:12;;;;;;;2.83;1.80;;;5.70;70.90;;;;;;5075872;28;20229;-87
2021/03/20 13:05:44;;;;;;;2.65;2.00;;;5.50;69.70;;;;;;5074845;28;20667;-87
2021/03/20 13:08:12;;;;;;;2.30;2.10;;;5.40;68.80;;;;;;5074978;28;20209;-84
2021/03/20 13:10:41;;;;;;;3.95;1.92;;;5.50;68.90;;;;;;5077592;28;20212;-87
2021/03/20 13:13:08;;;;;;;1.52;1.38;;;5.60;70.00;;;;;;5076005;28;20289;-87
2021/03/20 13:15:35;;;;;;;3.97;2.30;;;5.80;67.60;;;;;;5075637;28;20225;-85
2021/03/20 13:18:08;;;;;;;2.50;2.30;;;5.50;68.00;;;;;;5076115;28;20201;-88
2021/03/20 13:20:34;;;;;;;2.25;2.05;;;5.30;68.00;;;;;;5074075;28;20293;-79
2021/03/20 13:26:23;;;;;;;2.40;2.03;;;5.40;69.70;;;;;;5075311;28;20571;-84
2021/03/20 13:28:50;;;;;;;3.38;2.28;;;5.80;67.60;;;;;;5074853;28;20664;-86
2021/03/20 13:31:16;;;;;;;3.25;2.25;;;5.90;66.20;;;;;;5075855;28;20624;-84
2021/03/20 13:33:43;;;;;;;3.70;2.15;;;5.60;65.50;;;;;;5075540;28;20201;-85